sensor_id;sensor_type;location;lat;lon;timestamp;P1;durP1;ratioP1;P2;durP2;ratioP2
60336;SDS011;46978;50.288;28.624;2023-05-23T00:00:28;12.36;;;5.44;;
60336;SDS011;46978;50.288;28.624;2023-05-23T00:01:30;10.10;;;6.11;;
60336;SDS011;46978;50.288;28.624;2023-05-23T00:02:31;8.46;;;5.76;;
60336;SDS011;46978;50.288;28.624;2023-05-23T00:03:33;7.76;;;5.17;;
60336;SDS011;46978;50.288;28.624;2023-05-23T00:04:35;10.53;;;5.70;;
60336;SDS011;46978;50.288;28.624;2023-05-23T00:05:36;11.80;;;5.80;;
60336;SDS011;46978;50.288;28.624;2023-05-23T00:06:38;9.04;;;5.08;;
60336;SDS011;46978;50.288;28.624;2023-05-23T00:07:40;9.70;;;5.81;;
60336;SDS011;46978;50.288;28.624;2023-05-23T00:08:41;9.56;;;5.10;;
60336;SDS011;46978;50.288;28.624;2023-05-23T00:09:43;8.33;;;5.37;;
60336;SDS011;46978;50.288;28.624;2023-05-23T00:10:44;9.69;;;5.51;;
60336;SDS011;46978;50.288;28.624;2023-05-23T00:11:46;10.00;;;5.64;;
60336;SDS011;46978;50.288;28.624;2023-05-23T00:12:48;10.98;;;5.63;;
60336;SDS011;46978;50.288;28.624;2023-05-23T00:13:49;7.53;;;5.56;;
60336;SDS011;46978;50.288;28.624;2023-05-23T00:14:51;7.48;;;5.22;;
60336;SDS011;46978;50.288;28.624;2023-05-23T00:15:52;10.41;;;5.76;;
60336;SDS011;46978;50.288;28.624;2023-05-23T00:16:54;8.71;;;5.83;;
60336;SDS011;46978;50.288;28.624;2023-05-23T00:17:56;11.56;;;5.62;;
60336;SDS011;46978;50.288;28.624;2023-05-23T00:18:58;11.15;;;5.84;;
60336;SDS011;46978;50.288;28.624;2023-05-23T00:20:05;11.32;;;6.37;;
60336;SDS011;46978;50.288;28.624;2023-05-23T00:21:07;11.72;;;6.28;;
60336;SDS011;46978;50.288;28.624;2023-05-23T00:22:09;11.88;;;6.26;;
60336;SDS011;46978;50.288;28.624;2023-05-23T00:23:11;9.55;;;5.98;;
60336;SDS011;46978;50.288;28.624;2023-05-23T00:24:13;10.21;;;6.35;;
60336;SDS011;46978;50.288;28.624;2023-05-23T00:25:14;10.34;;;5.77;;
60336;SDS011;46978;50.288;28.624;2023-05-23T00:26:16;10.16;;;6.31;;
60336;SDS011;46978;50.288;28.624;2023-05-23T00:27:17;11.64;;;6.51;;
60336;SDS011;46978;50.288;28.624;2023-05-23T00:28:19;13.22;;;7.17;;
60336;SDS011;46978;50.288;28.624;2023-05-23T00:29:21;11.67;;;6.68;;
60336;SDS011;46978;50.288;28.624;2023-05-23T00:30:22;11.89;;;6.71;;
60336;SDS011;46978;50.288;28.624;2023-05-23T00:31:24;10.87;;;6.25;;
60336;SDS011;46978;50.288;28.624;2023-05-23T00:32:26;11.94;;;6.89;;
60336;SDS011;46978;50.288;28.624;2023-05-23T00:33:27;12.39;;;7.06;;
60336;SDS011;46978;50.288;28.624;2023-05-23T00:34:29;12.25;;;6.07;;
60336;SDS011;46978;50.288;28.624;2023-05-23T00:35:31;10.22;;;5.76;;
60336;SDS011;46978;50.288;28.624;2023-05-23T00:36:33;11.80;;;7.45;;
60336;SDS011;46978;50.288;28.624;2023-05-23T00:37:34;12.41;;;6.37;;
60336;SDS011;46978;50.288;28.624;2023-05-23T00:38:35;10.68;;;6.24;;
60336;SDS011;46978;50.288;28.624;2023-05-23T00:39:37;11.06;;;6.84;;
60336;SDS011;46978;50.288;28.624;2023-05-23T00:40:39;10.19;;;6.28;;
60336;SDS011;46978;50.288;28.624;2023-05-23T00:41:41;9.85;;;6.25;;
60336;SDS011;46978;50.288;28.624;2023-05-23T00:42:42;10.84;;;6.08;;
60336;SDS011;46978;50.288;28.624;2023-05-23T00:43:44;11.12;;;6.22;;
60336;SDS011;46978;50.288;28.624;2023-05-23T00:44:46;10.14;;;5.66;;
60336;SDS011;46978;50.288;28.624;2023-05-23T00:45:47;8.19;;;5.77;;
60336;SDS011;46978;50.288;28.624;2023-05-23T00:46:50;10.79;;;5.35;;
60336;SDS011;46978;50.288;28.624;2023-05-23T00:47:56;7.89;;;5.45;;
60336;SDS011;46978;50.288;28.624;2023-05-23T00:48:58;8.26;;;4.94;;
60336;SDS011;46978;50.288;28.624;2023-05-23T00:50:00;8.59;;;4.94;;
60336;SDS011;46978;50.288;28.624;2023-05-23T00:51:02;9.72;;;5.13;;
60336;SDS011;46978;50.288;28.624;2023-05-23T00:52:03;9.90;;;5.00;;
60336;SDS011;46978;50.288;28.624;2023-05-23T00:53:06;8.33;;;5.29;;
60336;SDS011;46978;50.288;28.624;2023-05-23T00:54:08;9.89;;;5.09;;
60336;SDS011;46978;50.288;28.624;2023-05-23T00:55:09;8.15;;;5.06;;
60336;SDS011;46978;50.288;28.624;2023-05-23T00:56:16;8.35;;;5.18;;
60336;SDS011;46978;50.288;28.624;2023-05-23T00:57:19;7.84;;;4.70;;
60336;SDS011;46978;50.288;28.624;2023-05-23T00:58:21;8.10;;;5.14;;
60336;SDS011;46978;50.288;28.624;2023-05-23T00:59:23;9.61;;;5.10;;
60336;SDS011;46978;50.288;28.624;2023-05-23T01:00:25;10.29;;;5.26;;
60336;SDS011;46978;50.288;28.624;2023-05-23T01:01:28;8.53;;;4.62;;
60336;SDS011;46978;50.288;28.624;2023-05-23T01:02:30;7.13;;;4.65;;
60336;SDS011;46978;50.288;28.624;2023-05-23T01:03:35;7.56;;;5.07;;
60336;SDS011;46978;50.288;28.624;2023-05-23T01:04:36;8.13;;;5.14;;
60336;SDS011;46978;50.288;28.624;2023-05-23T01:05:38;7.60;;;4.87;;
60336;SDS011;46978;50.288;28.624;2023-05-23T01:06:40;7.43;;;4.79;;
60336;SDS011;46978;50.288;28.624;2023-05-23T01:07:47;6.85;;;4.51;;
60336;SDS011;46978;50.288;28.624;2023-05-23T01:08:46;9.97;;;5.11;;
60336;SDS011;46978;50.288;28.624;2023-05-23T01:09:48;11.59;;;5.36;;
60336;SDS011;46978;50.288;28.624;2023-05-23T01:10:50;6.89;;;4.93;;
60336;SDS011;46978;50.288;28.624;2023-05-23T01:14:14;9.85;;;5.17;;
60336;SDS011;46978;50.288;28.624;2023-05-23T01:14:54;7.84;;;4.37;;
60336;SDS011;46978;50.288;28.624;2023-05-23T01:16:27;8.88;;;4.89;;
60336;SDS011;46978;50.288;28.624;2023-05-23T01:17:18;7.78;;;4.97;;
60336;SDS011;46978;50.288;28.624;2023-05-23T01:19:02;8.84;;;5.15;;
60336;SDS011;46978;50.288;28.624;2023-05-23T01:21:14;10.21;;;5.19;;
60336;SDS011;46978;50.288;28.624;2023-05-23T01:22:26;9.86;;;5.26;;
60336;SDS011;46978;50.288;28.624;2023-05-23T01:23:30;8.72;;;5.03;;
60336;SDS011;46978;50.288;28.624;2023-05-23T01:28:54;7.11;;;4.87;;
60336;SDS011;46978;50.288;28.624;2023-05-23T01:29:58;8.92;;;5.01;;
60336;SDS011;46978;50.288;28.624;2023-05-23T01:31:03;9.49;;;4.66;;
60336;SDS011;46978;50.288;28.624;2023-05-23T01:32:09;9.51;;;4.69;;
60336;SDS011;46978;50.288;28.624;2023-05-23T01:33:12;8.29;;;4.96;;
60336;SDS011;46978;50.288;28.624;2023-05-23T01:34:16;7.39;;;5.06;;
60336;SDS011;46978;50.288;28.624;2023-05-23T01:35:26;9.23;;;5.44;;
60336;SDS011;46978;50.288;28.624;2023-05-23T01:36:28;8.89;;;4.91;;
60336;SDS011;46978;50.288;28.624;2023-05-23T01:37:29;6.82;;;4.29;;
60336;SDS011;46978;50.288;28.624;2023-05-23T01:38:31;8.18;;;4.91;;
60336;SDS011;46978;50.288;28.624;2023-05-23T01:39:33;9.61;;;4.92;;
60336;SDS011;46978;50.288;28.624;2023-05-23T01:40:34;8.55;;;4.87;;
60336;SDS011;46978;50.288;28.624;2023-05-23T01:41:36;8.52;;;4.36;;
60336;SDS011;46978;50.288;28.624;2023-05-23T01:42:38;7.14;;;4.33;;
60336;SDS011;46978;50.288;28.624;2023-05-23T01:43:40;8.94;;;4.44;;
60336;SDS011;46978;50.288;28.624;2023-05-23T01:44:42;6.68;;;4.24;;
60336;SDS011;46978;50.288;28.624;2023-05-23T01:45:45;6.83;;;4.37;;
60336;SDS011;46978;50.288;28.624;2023-05-23T01:46:48;7.49;;;4.44;;
60336;SDS011;46978;50.288;28.624;2023-05-23T01:47:49;6.02;;;4.57;;
60336;SDS011;46978;50.288;28.624;2023-05-23T01:48:51;7.78;;;4.39;;
60336;SDS011;46978;50.288;28.624;2023-05-23T01:49:55;6.92;;;4.01;;
60336;SDS011;46978;50.288;28.624;2023-05-23T01:50:59;7.96;;;4.49;;
60336;SDS011;46978;50.288;28.624;2023-05-23T01:52:02;7.34;;;4.61;;
60336;SDS011;46978;50.288;28.624;2023-05-23T01:53:06;8.65;;;4.72;;
60336;SDS011;46978;50.288;28.624;2023-05-23T01:54:09;8.63;;;4.66;;
60336;SDS011;46978;50.288;28.624;2023-05-23T01:55:11;8.97;;;4.82;;
60336;SDS011;46978;50.288;28.624;2023-05-23T01:56:16;7.32;;;4.24;;
60336;SDS011;46978;50.288;28.624;2023-05-23T01:57:19;10.28;;;5.39;;
60336;SDS011;46978;50.288;28.624;2023-05-23T01:58:21;8.89;;;4.91;;
60336;SDS011;46978;50.288;28.624;2023-05-23T01:59:23;9.43;;;4.89;;
60336;SDS011;46978;50.288;28.624;2023-05-23T02:00:25;11.65;;;4.80;;
60336;SDS011;46978;50.288;28.624;2023-05-23T02:01:27;8.06;;;4.43;;
60336;SDS011;46978;50.288;28.624;2023-05-23T02:02:28;7.69;;;4.31;;
60336;SDS011;46978;50.288;28.624;2023-05-23T02:03:30;10.32;;;4.63;;
60336;SDS011;46978;50.288;28.624;2023-05-23T02:04:32;9.67;;;4.33;;
60336;SDS011;46978;50.288;28.624;2023-05-23T02:05:34;7.19;;;4.71;;
60336;SDS011;46978;50.288;28.624;2023-05-23T02:06:35;8.49;;;5.00;;
60336;SDS011;46978;50.288;28.624;2023-05-23T02:07:37;6.98;;;4.52;;
60336;SDS011;46978;50.288;28.624;2023-05-23T02:08:39;7.74;;;4.39;;
60336;SDS011;46978;50.288;28.624;2023-05-23T02:09:40;7.42;;;4.72;;
60336;SDS011;46978;50.288;28.624;2023-05-23T02:10:42;6.92;;;4.69;;
60336;SDS011;46978;50.288;28.624;2023-05-23T02:11:44;8.89;;;4.42;;
60336;SDS011;46978;50.288;28.624;2023-05-23T02:12:46;9.23;;;4.86;;
60336;SDS011;46978;50.288;28.624;2023-05-23T02:13:47;7.85;;;4.70;;
60336;SDS011;46978;50.288;28.624;2023-05-23T02:14:49;6.93;;;4.30;;
60336;SDS011;46978;50.288;28.624;2023-05-23T02:15:51;8.14;;;4.77;;
60336;SDS011;46978;50.288;28.624;2023-05-23T02:16:53;6.71;;;4.61;;
60336;SDS011;46978;50.288;28.624;2023-05-23T02:17:54;8.04;;;4.56;;
60336;SDS011;46978;50.288;28.624;2023-05-23T02:18:56;6.46;;;4.34;;
60336;SDS011;46978;50.288;28.624;2023-05-23T02:19:57;6.61;;;4.40;;
60336;SDS011;46978;50.288;28.624;2023-05-23T02:20:59;6.04;;;4.34;;
60336;SDS011;46978;50.288;28.624;2023-05-23T02:22:00;6.04;;;4.37;;
60336;SDS011;46978;50.288;28.624;2023-05-23T02:23:02;7.47;;;4.75;;
60336;SDS011;46978;50.288;28.624;2023-05-23T02:24:04;8.56;;;4.65;;
60336;SDS011;46978;50.288;28.624;2023-05-23T02:25:06;6.71;;;4.50;;
60336;SDS011;46978;50.288;28.624;2023-05-23T02:26:08;6.96;;;4.56;;
60336;SDS011;46978;50.288;28.624;2023-05-23T02:27:10;10.29;;;5.03;;
60336;SDS011;46978;50.288;28.624;2023-05-23T02:28:11;15.64;;;4.99;;
60336;SDS011;46978;50.288;28.624;2023-05-23T02:29:13;8.44;;;4.85;;
60336;SDS011;46978;50.288;28.624;2023-05-23T02:30:15;9.46;;;4.93;;
60336;SDS011;46978;50.288;28.624;2023-05-23T02:31:17;7.68;;;4.84;;
60336;SDS011;46978;50.288;28.624;2023-05-23T02:32:19;8.36;;;4.62;;
60336;SDS011;46978;50.288;28.624;2023-05-23T02:33:20;7.21;;;4.91;;
60336;SDS011;46978;50.288;28.624;2023-05-23T02:34:22;8.73;;;5.20;;
60336;SDS011;46978;50.288;28.624;2023-05-23T02:35:24;6.89;;;4.48;;
60336;SDS011;46978;50.288;28.624;2023-05-23T02:36:25;6.91;;;4.70;;
60336;SDS011;46978;50.288;28.624;2023-05-23T02:37:27;9.11;;;4.73;;
60336;SDS011;46978;50.288;28.624;2023-05-23T02:38:29;8.76;;;5.20;;
60336;SDS011;46978;50.288;28.624;2023-05-23T02:39:30;7.93;;;5.24;;
60336;SDS011;46978;50.288;28.624;2023-05-23T02:40:32;6.28;;;4.34;;
60336;SDS011;46978;50.288;28.624;2023-05-23T02:41:33;8.20;;;4.76;;
60336;SDS011;46978;50.288;28.624;2023-05-23T02:42:35;7.16;;;4.69;;
60336;SDS011;46978;50.288;28.624;2023-05-23T02:43:37;10.12;;;5.51;;
60336;SDS011;46978;50.288;28.624;2023-05-23T02:44:38;6.29;;;4.27;;
60336;SDS011;46978;50.288;28.624;2023-05-23T02:45:40;7.88;;;4.77;;
60336;SDS011;46978;50.288;28.624;2023-05-23T02:46:42;7.79;;;4.61;;
60336;SDS011;46978;50.288;28.624;2023-05-23T02:47:43;7.61;;;4.81;;
60336;SDS011;46978;50.288;28.624;2023-05-23T02:48:45;6.79;;;4.88;;
60336;SDS011;46978;50.288;28.624;2023-05-23T02:49:46;7.02;;;4.81;;
60336;SDS011;46978;50.288;28.624;2023-05-23T02:50:48;6.95;;;4.52;;
60336;SDS011;46978;50.288;28.624;2023-05-23T02:51:50;8.44;;;4.54;;
60336;SDS011;46978;50.288;28.624;2023-05-23T02:52:52;8.06;;;4.64;;
60336;SDS011;46978;50.288;28.624;2023-05-23T02:53:53;14.28;;;5.52;;
60336;SDS011;46978;50.288;28.624;2023-05-23T02:54:55;7.55;;;4.67;;
60336;SDS011;46978;50.288;28.624;2023-05-23T02:55:56;7.44;;;4.94;;
60336;SDS011;46978;50.288;28.624;2023-05-23T02:56:58;6.53;;;4.47;;
60336;SDS011;46978;50.288;28.624;2023-05-23T02:57:59;9.11;;;4.54;;
60336;SDS011;46978;50.288;28.624;2023-05-23T02:59:01;8.76;;;5.14;;
60336;SDS011;46978;50.288;28.624;2023-05-23T03:00:03;8.64;;;4.85;;
60336;SDS011;46978;50.288;28.624;2023-05-23T03:01:05;8.07;;;5.08;;
60336;SDS011;46978;50.288;28.624;2023-05-23T03:02:07;8.44;;;4.64;;
60336;SDS011;46978;50.288;28.624;2023-05-23T03:03:09;8.14;;;4.75;;
60336;SDS011;46978;50.288;28.624;2023-05-23T03:04:10;6.47;;;4.87;;
60336;SDS011;46978;50.288;28.624;2023-05-23T03:05:12;7.23;;;4.69;;
60336;SDS011;46978;50.288;28.624;2023-05-23T03:06:14;8.36;;;4.74;;
60336;SDS011;46978;50.288;28.624;2023-05-23T03:07:15;9.23;;;4.82;;
60336;SDS011;46978;50.288;28.624;2023-05-23T03:08:17;8.07;;;4.80;;
60336;SDS011;46978;50.288;28.624;2023-05-23T03:09:19;6.95;;;4.24;;
60336;SDS011;46978;50.288;28.624;2023-05-23T03:10:21;7.63;;;4.88;;
60336;SDS011;46978;50.288;28.624;2023-05-23T03:11:22;6.77;;;4.28;;
60336;SDS011;46978;50.288;28.624;2023-05-23T03:12:24;7.36;;;4.42;;
60336;SDS011;46978;50.288;28.624;2023-05-23T03:13:27;9.83;;;4.36;;
60336;SDS011;46978;50.288;28.624;2023-05-23T03:14:28;8.96;;;4.96;;
60336;SDS011;46978;50.288;28.624;2023-05-23T03:15:30;6.70;;;4.36;;
60336;SDS011;46978;50.288;28.624;2023-05-23T03:16:32;8.21;;;4.75;;
60336;SDS011;46978;50.288;28.624;2023-05-23T03:17:33;8.15;;;4.35;;
60336;SDS011;46978;50.288;28.624;2023-05-23T03:18:35;6.84;;;4.45;;
60336;SDS011;46978;50.288;28.624;2023-05-23T03:19:36;8.24;;;4.24;;
60336;SDS011;46978;50.288;28.624;2023-05-23T03:20:38;8.61;;;4.41;;
60336;SDS011;46978;50.288;28.624;2023-05-23T03:21:40;7.67;;;4.23;;
60336;SDS011;46978;50.288;28.624;2023-05-23T03:22:41;7.81;;;4.19;;
60336;SDS011;46978;50.288;28.624;2023-05-23T03:23:43;6.53;;;4.26;;
60336;SDS011;46978;50.288;28.624;2023-05-23T03:24:44;9.18;;;4.09;;
60336;SDS011;46978;50.288;28.624;2023-05-23T03:25:47;8.48;;;4.65;;
60336;SDS011;46978;50.288;28.624;2023-05-23T03:26:50;11.53;;;4.12;;
60336;SDS011;46978;50.288;28.624;2023-05-23T03:27:51;8.12;;;4.34;;
60336;SDS011;46978;50.288;28.624;2023-05-23T03:28:53;7.27;;;4.76;;
60336;SDS011;46978;50.288;28.624;2023-05-23T03:29:54;8.34;;;4.67;;
60336;SDS011;46978;50.288;28.624;2023-05-23T03:30:56;9.10;;;4.53;;
60336;SDS011;46978;50.288;28.624;2023-05-23T03:31:58;8.45;;;5.15;;
60336;SDS011;46978;50.288;28.624;2023-05-23T03:32:59;9.80;;;4.97;;
60336;SDS011;46978;50.288;28.624;2023-05-23T03:34:01;8.29;;;4.51;;
60336;SDS011;46978;50.288;28.624;2023-05-23T03:35:03;9.07;;;4.86;;
60336;SDS011;46978;50.288;28.624;2023-05-23T03:36:06;8.87;;;5.09;;
60336;SDS011;46978;50.288;28.624;2023-05-23T03:37:08;9.15;;;4.26;;
60336;SDS011;46978;50.288;28.624;2023-05-23T03:38:10;7.63;;;4.46;;
60336;SDS011;46978;50.288;28.624;2023-05-23T03:39:11;7.17;;;4.38;;
60336;SDS011;46978;50.288;28.624;2023-05-23T03:40:14;8.07;;;4.34;;
60336;SDS011;46978;50.288;28.624;2023-05-23T03:41:15;8.31;;;4.39;;
60336;SDS011;46978;50.288;28.624;2023-05-23T03:42:17;12.76;;;4.63;;
60336;SDS011;46978;50.288;28.624;2023-05-23T03:43:18;9.63;;;4.78;;
60336;SDS011;46978;50.288;28.624;2023-05-23T03:44:20;7.07;;;4.64;;
60336;SDS011;46978;50.288;28.624;2023-05-23T03:45:21;8.33;;;4.20;;
60336;SDS011;46978;50.288;28.624;2023-05-23T03:46:23;7.98;;;4.27;;
60336;SDS011;46978;50.288;28.624;2023-05-23T03:47:25;7.13;;;4.55;;
60336;SDS011;46978;50.288;28.624;2023-05-23T03:48:26;9.59;;;4.55;;
60336;SDS011;46978;50.288;28.624;2023-05-23T03:49:28;9.26;;;3.95;;
60336;SDS011;46978;50.288;28.624;2023-05-23T03:50:30;7.06;;;4.48;;
60336;SDS011;46978;50.288;28.624;2023-05-23T03:51:32;10.49;;;4.88;;
60336;SDS011;46978;50.288;28.624;2023-05-23T03:52:34;6.89;;;4.43;;
60336;SDS011;46978;50.288;28.624;2023-05-23T03:53:35;8.58;;;4.18;;
60336;SDS011;46978;50.288;28.624;2023-05-23T03:54:37;7.14;;;4.84;;
60336;SDS011;46978;50.288;28.624;2023-05-23T03:55:38;7.51;;;4.58;;
60336;SDS011;46978;50.288;28.624;2023-05-23T03:56:40;13.30;;;4.89;;
60336;SDS011;46978;50.288;28.624;2023-05-23T03:57:42;8.84;;;4.95;;
60336;SDS011;46978;50.288;28.624;2023-05-23T03:58:43;9.86;;;4.71;;
60336;SDS011;46978;50.288;28.624;2023-05-23T03:59:45;11.26;;;5.01;;
60336;SDS011;46978;50.288;28.624;2023-05-23T04:00:46;17.17;;;5.25;;
60336;SDS011;46978;50.288;28.624;2023-05-23T04:01:48;10.17;;;5.06;;
60336;SDS011;46978;50.288;28.624;2023-05-23T04:02:50;10.86;;;4.66;;
60336;SDS011;46978;50.288;28.624;2023-05-23T04:03:51;8.54;;;4.62;;
60336;SDS011;46978;50.288;28.624;2023-05-23T04:04:53;8.34;;;4.18;;
60336;SDS011;46978;50.288;28.624;2023-05-23T04:05:54;9.79;;;4.75;;
60336;SDS011;46978;50.288;28.624;2023-05-23T04:06:56;7.39;;;4.55;;
60336;SDS011;46978;50.288;28.624;2023-05-23T04:07:59;10.12;;;4.27;;
60336;SDS011;46978;50.288;28.624;2023-05-23T04:09:00;8.61;;;4.52;;
60336;SDS011;46978;50.288;28.624;2023-05-23T04:10:02;9.19;;;4.54;;
60336;SDS011;46978;50.288;28.624;2023-05-23T04:11:04;10.16;;;4.51;;
60336;SDS011;46978;50.288;28.624;2023-05-23T04:12:06;5.75;;;4.03;;
60336;SDS011;46978;50.288;28.624;2023-05-23T04:13:08;6.27;;;4.01;;
60336;SDS011;46978;50.288;28.624;2023-05-23T04:14:10;7.85;;;4.43;;
60336;SDS011;46978;50.288;28.624;2023-05-23T04:15:11;7.42;;;4.21;;
60336;SDS011;46978;50.288;28.624;2023-05-23T04:16:14;8.51;;;4.27;;
60336;SDS011;46978;50.288;28.624;2023-05-23T04:17:15;8.81;;;4.20;;
60336;SDS011;46978;50.288;28.624;2023-05-23T04:18:17;6.98;;;4.34;;
60336;SDS011;46978;50.288;28.624;2023-05-23T04:19:18;7.69;;;4.36;;
60336;SDS011;46978;50.288;28.624;2023-05-23T04:20:20;8.71;;;4.76;;
60336;SDS011;46978;50.288;28.624;2023-05-23T04:21:22;8.15;;;4.27;;
60336;SDS011;46978;50.288;28.624;2023-05-23T04:22:23;6.49;;;4.11;;
60336;SDS011;46978;50.288;28.624;2023-05-23T04:23:25;9.68;;;4.55;;
60336;SDS011;46978;50.288;28.624;2023-05-23T04:24:27;9.04;;;4.41;;
60336;SDS011;46978;50.288;28.624;2023-05-23T04:25:28;6.34;;;4.14;;
60336;SDS011;46978;50.288;28.624;2023-05-23T04:26:30;12.32;;;4.37;;
60336;SDS011;46978;50.288;28.624;2023-05-23T04:27:32;8.24;;;4.16;;
60336;SDS011;46978;50.288;28.624;2023-05-23T04:28:33;7.81;;;3.26;;
60336;SDS011;46978;50.288;28.624;2023-05-23T04:29:35;6.76;;;3.40;;
60336;SDS011;46978;50.288;28.624;2023-05-23T04:30:37;7.07;;;3.33;;
60336;SDS011;46978;50.288;28.624;2023-05-23T04:31:38;7.01;;;3.54;;
60336;SDS011;46978;50.288;28.624;2023-05-23T04:32:40;7.17;;;3.49;;
60336;SDS011;46978;50.288;28.624;2023-05-23T04:33:41;10.83;;;3.65;;
60336;SDS011;46978;50.288;28.624;2023-05-23T04:34:43;7.64;;;3.60;;
60336;SDS011;46978;50.288;28.624;2023-05-23T04:35:45;7.71;;;2.97;;
60336;SDS011;46978;50.288;28.624;2023-05-23T04:36:47;8.96;;;2.95;;
60336;SDS011;46978;50.288;28.624;2023-05-23T04:37:48;7.84;;;3.04;;
60336;SDS011;46978;50.288;28.624;2023-05-23T04:38:50;5.61;;;2.66;;
60336;SDS011;46978;50.288;28.624;2023-05-23T04:39:51;6.94;;;2.81;;
60336;SDS011;46978;50.288;28.624;2023-05-23T04:40:53;5.37;;;2.40;;
60336;SDS011;46978;50.288;28.624;2023-05-23T04:41:55;4.98;;;2.74;;
60336;SDS011;46978;50.288;28.624;2023-05-23T04:42:57;5.37;;;2.83;;
60336;SDS011;46978;50.288;28.624;2023-05-23T04:43:58;8.06;;;3.15;;
60336;SDS011;46978;50.288;28.624;2023-05-23T04:45:00;5.91;;;2.84;;
60336;SDS011;46978;50.288;28.624;2023-05-23T04:46:02;10.31;;;2.79;;
60336;SDS011;46978;50.288;28.624;2023-05-23T04:47:04;3.80;;;2.10;;
60336;SDS011;46978;50.288;28.624;2023-05-23T04:48:06;4.91;;;2.53;;
60336;SDS011;46978;50.288;28.624;2023-05-23T04:49:08;6.00;;;2.81;;
60336;SDS011;46978;50.288;28.624;2023-05-23T04:50:10;5.86;;;2.87;;
60336;SDS011;46978;50.288;28.624;2023-05-23T04:51:12;6.35;;;2.53;;
60336;SDS011;46978;50.288;28.624;2023-05-23T04:52:14;5.61;;;2.98;;
60336;SDS011;46978;50.288;28.624;2023-05-23T04:53:15;7.91;;;2.94;;
60336;SDS011;46978;50.288;28.624;2023-05-23T04:54:17;9.56;;;2.28;;
60336;SDS011;46978;50.288;28.624;2023-05-23T04:55:18;4.36;;;2.35;;
60336;SDS011;46978;50.288;28.624;2023-05-23T04:56:20;5.39;;;2.46;;
60336;SDS011;46978;50.288;28.624;2023-05-23T04:57:21;4.80;;;2.19;;
60336;SDS011;46978;50.288;28.624;2023-05-23T04:58:23;5.81;;;2.52;;
60336;SDS011;46978;50.288;28.624;2023-05-23T04:59:24;4.31;;;2.66;;
60336;SDS011;46978;50.288;28.624;2023-05-23T05:00:26;3.39;;;2.06;;
60336;SDS011;46978;50.288;28.624;2023-05-23T05:01:28;4.84;;;2.31;;
60336;SDS011;46978;50.288;28.624;2023-05-23T05:02:30;5.48;;;2.60;;
60336;SDS011;46978;50.288;28.624;2023-05-23T05:03:31;6.39;;;2.32;;
60336;SDS011;46978;50.288;28.624;2023-05-23T05:04:33;4.59;;;2.25;;
60336;SDS011;46978;50.288;28.624;2023-05-23T05:05:34;3.82;;;2.35;;
60336;SDS011;46978;50.288;28.624;2023-05-23T05:06:36;4.73;;;2.26;;
60336;SDS011;46978;50.288;28.624;2023-05-23T05:07:37;3.50;;;2.35;;
60336;SDS011;46978;50.288;28.624;2023-05-23T05:08:39;4.26;;;2.36;;
60336;SDS011;46978;50.288;28.624;2023-05-23T05:09:40;5.84;;;2.49;;
60336;SDS011;46978;50.288;28.624;2023-05-23T05:10:42;5.56;;;2.20;;
60336;SDS011;46978;50.288;28.624;2023-05-23T05:11:44;6.01;;;2.35;;
60336;SDS011;46978;50.288;28.624;2023-05-23T05:12:46;5.52;;;2.31;;
60336;SDS011;46978;50.288;28.624;2023-05-23T05:13:48;6.25;;;2.19;;
60336;SDS011;46978;50.288;28.624;2023-05-23T05:14:49;5.55;;;2.50;;
60336;SDS011;46978;50.288;28.624;2023-05-23T05:15:51;5.64;;;2.45;;
60336;SDS011;46978;50.288;28.624;2023-05-23T05:16:52;4.70;;;2.49;;
60336;SDS011;46978;50.288;28.624;2023-05-23T05:17:54;7.29;;;2.50;;
60336;SDS011;46978;50.288;28.624;2023-05-23T05:18:56;9.99;;;4.54;;
60336;SDS011;46978;50.288;28.624;2023-05-23T05:19:58;7.45;;;2.67;;
60336;SDS011;46978;50.288;28.624;2023-05-23T05:20:59;15.21;;;4.70;;
60336;SDS011;46978;50.288;28.624;2023-05-23T05:22:01;4.64;;;2.54;;
60336;SDS011;46978;50.288;28.624;2023-05-23T05:23:02;5.92;;;2.60;;
60336;SDS011;46978;50.288;28.624;2023-05-23T05:24:04;12.13;;;3.94;;
60336;SDS011;46978;50.288;28.624;2023-05-23T05:25:06;6.22;;;2.68;;
60336;SDS011;46978;50.288;28.624;2023-05-23T05:26:10;6.81;;;2.64;;
60336;SDS011;46978;50.288;28.624;2023-05-23T05:27:11;6.19;;;2.59;;
60336;SDS011;46978;50.288;28.624;2023-05-23T05:28:13;6.44;;;2.54;;
60336;SDS011;46978;50.288;28.624;2023-05-23T05:29:14;5.43;;;2.41;;
60336;SDS011;46978;50.288;28.624;2023-05-23T05:30:16;7.95;;;3.17;;
60336;SDS011;46978;50.288;28.624;2023-05-23T05:31:18;8.68;;;2.83;;
60336;SDS011;46978;50.288;28.624;2023-05-23T05:32:20;5.96;;;2.63;;
60336;SDS011;46978;50.288;28.624;2023-05-23T05:33:22;7.59;;;3.22;;
60336;SDS011;46978;50.288;28.624;2023-05-23T05:34:23;4.60;;;2.31;;
60336;SDS011;46978;50.288;28.624;2023-05-23T05:35:25;4.31;;;2.34;;
60336;SDS011;46978;50.288;28.624;2023-05-23T05:36:26;3.81;;;2.39;;
60336;SDS011;46978;50.288;28.624;2023-05-23T05:37:28;6.11;;;2.75;;
60336;SDS011;46978;50.288;28.624;2023-05-23T05:38:30;6.07;;;2.39;;
60336;SDS011;46978;50.288;28.624;2023-05-23T05:39:31;5.79;;;2.49;;
60336;SDS011;46978;50.288;28.624;2023-05-23T05:40:33;7.90;;;3.02;;
60336;SDS011;46978;50.288;28.624;2023-05-23T05:41:35;5.51;;;2.38;;
60336;SDS011;46978;50.288;28.624;2023-05-23T05:42:36;6.66;;;2.66;;
60336;SDS011;46978;50.288;28.624;2023-05-23T05:43:38;7.82;;;2.27;;
60336;SDS011;46978;50.288;28.624;2023-05-23T05:44:39;7.67;;;2.50;;
60336;SDS011;46978;50.288;28.624;2023-05-23T05:45:41;7.00;;;2.28;;
60336;SDS011;46978;50.288;28.624;2023-05-23T05:46:43;7.38;;;2.45;;
60336;SDS011;46978;50.288;28.624;2023-05-23T05:47:45;5.47;;;2.65;;
60336;SDS011;46978;50.288;28.624;2023-05-23T05:48:47;4.73;;;2.36;;
60336;SDS011;46978;50.288;28.624;2023-05-23T05:49:48;7.97;;;2.59;;
60336;SDS011;46978;50.288;28.624;2023-05-23T05:50:50;4.42;;;2.02;;
60336;SDS011;46978;50.288;28.624;2023-05-23T05:51:52;5.14;;;2.19;;
60336;SDS011;46978;50.288;28.624;2023-05-23T05:52:53;5.27;;;2.26;;
60336;SDS011;46978;50.288;28.624;2023-05-23T05:53:55;7.94;;;3.19;;
60336;SDS011;46978;50.288;28.624;2023-05-23T05:54:57;8.72;;;3.15;;
60336;SDS011;46978;50.288;28.624;2023-05-23T05:55:58;4.62;;;2.71;;
60336;SDS011;46978;50.288;28.624;2023-05-23T05:57:00;4.58;;;2.44;;
60336;SDS011;46978;50.288;28.624;2023-05-23T05:58:02;5.86;;;2.21;;
60336;SDS011;46978;50.288;28.624;2023-05-23T05:59:03;4.08;;;2.28;;
60336;SDS011;46978;50.288;28.624;2023-05-23T06:00:11;5.42;;;2.57;;
60336;SDS011;46978;50.288;28.624;2023-05-23T06:01:10;5.10;;;2.73;;
60336;SDS011;46978;50.288;28.624;2023-05-23T06:02:12;4.90;;;2.31;;
60336;SDS011;46978;50.288;28.624;2023-05-23T06:03:13;4.35;;;2.47;;
60336;SDS011;46978;50.288;28.624;2023-05-23T06:04:15;6.25;;;2.43;;
60336;SDS011;46978;50.288;28.624;2023-05-23T06:05:17;4.69;;;2.25;;
60336;SDS011;46978;50.288;28.624;2023-05-23T06:06:19;9.27;;;2.47;;
60336;SDS011;46978;50.288;28.624;2023-05-23T06:07:21;4.74;;;2.09;;
60336;SDS011;46978;50.288;28.624;2023-05-23T06:08:22;5.96;;;2.42;;
60336;SDS011;46978;50.288;28.624;2023-05-23T06:09:24;5.07;;;2.06;;
60336;SDS011;46978;50.288;28.624;2023-05-23T06:10:26;4.44;;;2.04;;
60336;SDS011;46978;50.288;28.624;2023-05-23T06:11:27;3.89;;;1.94;;
60336;SDS011;46978;50.288;28.624;2023-05-23T06:12:29;4.77;;;2.04;;
60336;SDS011;46978;50.288;28.624;2023-05-23T06:13:31;3.65;;;1.86;;
60336;SDS011;46978;50.288;28.624;2023-05-23T06:14:32;5.21;;;1.88;;
60336;SDS011;46978;50.288;28.624;2023-05-23T06:15:34;4.18;;;1.86;;